sensor_id;sensor_type;location;lat;lon;timestamp;temperature;humidity
10051;DHT22;5065;46.942;7.432;2023-07-22T00:00:16;20.10;99.90
10051;DHT22;5065;46.942;7.432;2023-07-22T00:02:43;20.10;99.90
10051;DHT22;5065;46.942;7.432;2023-07-22T00:05:10;20.10;99.90
10051;DHT22;5065;46.942;7.432;2023-07-22T00:07:38;20.10;99.90
10051;DHT22;5065;46.942;7.432;2023-07-22T00:10:07;20.00;99.90
10051;DHT22;5065;46.942;7.432;2023-07-22T00:12:35;20.10;99.90
10051;DHT22;5065;46.942;7.432;2023-07-22T00:15:02;20.10;99.90
10051;DHT22;5065;46.942;7.432;2023-07-22T00:17:31;20.10;99.90
10051;DHT22;5065;46.942;7.432;2023-07-22T00:19:58;20.10;99.90
10051;DHT22;5065;46.942;7.432;2023-07-22T00:22:25;20.10;99.90
10051;DHT22;5065;46.942;7.432;2023-07-22T00:24:53;20.20;99.90
10051;DHT22;5065;46.942;7.432;2023-07-22T00:27:21;20.20;99.90
10051;DHT22;5065;46.942;7.432;2023-07-22T00:29:50;20.20;99.90
10051;DHT22;5065;46.942;7.432;2023-07-22T00:32:17;20.20;99.90
10051;DHT22;5065;46.942;7.432;2023-07-22T00:34:46;20.10;99.90
10051;DHT22;5065;46.942;7.432;2023-07-22T00:37:13;20.10;99.90
10051;DHT22;5065;46.942;7.432;2023-07-22T00:39:42;20.10;99.90
10051;DHT22;5065;46.942;7.432;2023-07-22T00:42:09;20.10;99.90
10051;DHT22;5065;46.942;7.432;2023-07-22T00:44:36;20.10;99.90
10051;DHT22;5065;46.942;7.432;2023-07-22T00:47:04;20.10;99.90
10051;DHT22;5065;46.942;7.432;2023-07-22T00:49:32;20.10;99.90
10051;DHT22;5065;46.942;7.432;2023-07-22T00:52:02;20.10;99.90
10051;DHT22;5065;46.942;7.432;2023-07-22T00:54:29;20.10;99.90
10051;DHT22;5065;46.942;7.432;2023-07-22T00:56:57;20.00;99.90
10051;DHT22;5065;46.942;7.432;2023-07-22T00:59:24;20.00;99.90
10051;DHT22;5065;46.942;7.432;2023-07-22T01:01:52;20.00;99.90
10051;DHT22;5065;46.942;7.432;2023-07-22T01:04:20;20.00;99.90
10051;DHT22;5065;46.942;7.432;2023-07-22T01:06:49;20.00;99.90
10051;DHT22;5065;46.942;7.432;2023-07-22T01:09:17;20.00;99.90
10051;DHT22;5065;46.942;7.432;2023-07-22T01:11:45;20.00;99.90
10051;DHT22;5065;46.942;7.432;2023-07-22T01:14:12;20.00;99.90
10051;DHT22;5065;46.942;7.432;2023-07-22T01:16:39;20.00;99.90
10051;DHT22;5065;46.942;7.432;2023-07-22T01:19:07;19.90;99.90
10051;DHT22;5065;46.942;7.432;2023-07-22T01:21:36;19.90;99.90
10051;DHT22;5065;46.942;7.432;2023-07-22T01:24:05;19.90;99.90
10051;DHT22;5065;46.942;7.432;2023-07-22T01:26:33;19.90;99.90
10051;DHT22;5065;46.942;7.432;2023-07-22T01:29:04;19.90;99.90
10051;DHT22;5065;46.942;7.432;2023-07-22T01:31:34;19.90;99.90
10051;DHT22;5065;46.942;7.432;2023-07-22T01:34:02;19.90;99.90
10051;DHT22;5065;46.942;7.432;2023-07-22T01:36:30;19.90;99.90
10051;DHT22;5065;46.942;7.432;2023-07-22T01:38:57;19.90;99.90
10051;DHT22;5065;46.942;7.432;2023-07-22T01:41:26;19.90;99.90
10051;DHT22;5065;46.942;7.432;2023-07-22T01:43:53;19.80;99.90
10051;DHT22;5065;46.942;7.432;2023-07-22T01:46:20;19.80;99.90
10051;DHT22;5065;46.942;7.432;2023-07-22T01:48:47;19.80;99.90
10051;DHT22;5065;46.942;7.432;2023-07-22T01:51:14;19.80;99.90
10051;DHT22;5065;46.942;7.432;2023-07-22T01:53:41;19.80;99.90
10051;DHT22;5065;46.942;7.432;2023-07-22T01:56:09;19.90;99.90
10051;DHT22;5065;46.942;7.432;2023-07-22T01:58:37;19.80;99.90
10051;DHT22;5065;46.942;7.432;2023-07-22T02:01:04;19.80;99.90
10051;DHT22;5065;46.942;7.432;2023-07-22T02:03:33;19.80;99.90
10051;DHT22;5065;46.942;7.432;2023-07-22T02:06:04;19.80;99.90
10051;DHT22;5065;46.942;7.432;2023-07-22T02:08:32;19.80;99.90
10051;DHT22;5065;46.942;7.432;2023-07-22T02:11:01;19.80;99.90
10051;DHT22;5065;46.942;7.432;2023-07-22T02:13:29;19.80;99.90
10051;DHT22;5065;46.942;7.432;2023-07-22T02:15:58;19.80;99.90
10051;DHT22;5065;46.942;7.432;2023-07-22T02:18:26;19.80;99.90
10051;DHT22;5065;46.942;7.432;2023-07-22T02:20:54;19.70;99.90
10051;DHT22;5065;46.942;7.432;2023-07-22T02:23:22;19.70;99.90
10051;DHT22;5065;46.942;7.432;2023-07-22T02:25:50;19.70;99.90
10051;DHT22;5065;46.942;7.432;2023-07-22T02:28:18;19.70;99.90
10051;DHT22;5065;46.942;7.432;2023-07-22T02:30:46;19.70;99.90
10051;DHT22;5065;46.942;7.432;2023-07-22T02:33:15;19.70;99.90
10051;DHT22;5065;46.942;7.432;2023-07-22T02:35:43;19.80;99.90
10051;DHT22;5065;46.942;7.432;2023-07-22T02:38:10;19.70;99.90
10051;DHT22;5065;46.942;7.432;2023-07-22T02:40:37;19.70;99.90
10051;DHT22;5065;46.942;7.432;2023-07-22T02:43:05;19.70;99.90
10051;DHT22;5065;46.942;7.432;2023-07-22T02:45:33;19.70;99.90
10051;DHT22;5065;46.942;7.432;2023-07-22T02:48:00;19.60;99.90
10051;DHT22;5065;46.942;7.432;2023-07-22T02:50:28;19.70;99.90
10051;DHT22;5065;46.942;7.432;2023-07-22T02:55:26;19.70;99.90
10051;DHT22;5065;46.942;7.432;2023-07-22T02:57:53;19.60;99.90
10051;DHT22;5065;46.942;7.432;2023-07-22T03:00:20;19.60;99.90
10051;DHT22;5065;46.942;7.432;2023-07-22T03:02:50;19.70;99.90
10051;DHT22;5065;46.942;7.432;2023-07-22T03:05:18;19.60;99.90
10051;DHT22;5065;46.942;7.432;2023-07-22T03:07:48;19.50;99.90
10051;DHT22;5065;46.942;7.432;2023-07-22T03:10:15;19.60;99.90
10051;DHT22;5065;46.942;7.432;2023-07-22T03:12:42;19.60;99.90
10051;DHT22;5065;46.942;7.432;2023-07-22T03:15:10;19.60;99.90
10051;DHT22;5065;46.942;7.432;2023-07-22T03:17:39;19.50;99.90
10051;DHT22;5065;46.942;7.432;2023-07-22T03:20:08;19.50;99.90
10051;DHT22;5065;46.942;7.432;2023-07-22T03:22:40;19.50;99.90
10051;DHT22;5065;46.942;7.432;2023-07-22T03:25:09;19.50;99.90
10051;DHT22;5065;46.942;7.432;2023-07-22T03:27:36;19.40;99.90
10051;DHT22;5065;46.942;7.432;2023-07-22T03:30:05;19.30;99.90
10051;DHT22;5065;46.942;7.432;2023-07-22T03:32:33;19.30;99.90
10051;DHT22;5065;46.942;7.432;2023-07-22T03:35:00;19.30;99.90
10051;DHT22;5065;46.942;7.432;2023-07-22T03:37:28;19.30;99.90
10051;DHT22;5065;46.942;7.432;2023-07-22T03:39:56;19.30;99.90
10051;DHT22;5065;46.942;7.432;2023-07-22T03:42:24;19.30;99.90
10051;DHT22;5065;46.942;7.432;2023-07-22T03:44:53;19.30;99.90
10051;DHT22;5065;46.942;7.432;2023-07-22T03:47:20;19.30;99.90
10051;DHT22;5065;46.942;7.432;2023-07-22T03:49:47;19.30;99.90
10051;DHT22;5065;46.942;7.432;2023-07-22T03:52:14;19.30;99.90
10051;DHT22;5065;46.942;7.432;2023-07-22T03:54:44;19.40;99.90
10051;DHT22;5065;46.942;7.432;2023-07-22T03:57:11;19.30;99.90
10051;DHT22;5065;46.942;7.432;2023-07-22T03:59:40;19.30;99.90
10051;DHT22;5065;46.942;7.432;2023-07-22T04:02:07;19.30;99.90
10051;DHT22;5065;46.942;7.432;2023-07-22T04:04:35;19.40;99.90
10051;DHT22;5065;46.942;7.432;2023-07-22T04:07:02;19.30;99.90
10051;DHT22;5065;46.942;7.432;2023-07-22T04:09:33;19.20;99.90
10051;DHT22;5065;46.942;7.432;2023-07-22T04:12:00;19.20;99.90
10051;DHT22;5065;46.942;7.432;2023-07-22T04:14:27;19.20;99.90
10051;DHT22;5065;46.942;7.432;2023-07-22T04:16:56;19.30;99.90
10051;DHT22;5065;46.942;7.432;2023-07-22T04:19:24;19.30;99.90
10051;DHT22;5065;46.942;7.432;2023-07-22T04:21:51;19.30;99.90
10051;DHT22;5065;46.942;7.432;2023-07-22T04:24:18;19.30;99.90
10051;DHT22;5065;46.942;7.432;2023-07-22T04:26:45;19.30;99.90
10051;DHT22;5065;46.942;7.432;2023-07-22T04:29:12;19.20;99.90
10051;DHT22;5065;46.942;7.432;2023-07-22T04:31:40;19.30;99.90
10051;DHT22;5065;46.942;7.432;2023-07-22T04:34:08;19.20;99.90
10051;DHT22;5065;46.942;7.432;2023-07-22T04:36:38;19.20;99.90
10051;DHT22;5065;46.942;7.432;2023-07-22T04:39:05;19.20;99.90
10051;DHT22;5065;46.942;7.432;2023-07-22T04:41:33;19.30;99.90
10051;DHT22;5065;46.942;7.432;2023-07-22T04:44:00;19.30;99.90
10051;DHT22;5065;46.942;7.432;2023-07-22T04:46:28;19.30;99.90
10051;DHT22;5065;46.942;7.432;2023-07-22T04:48:56;19.40;99.90
10051;DHT22;5065;46.942;7.432;2023-07-22T04:51:25;19.40;99.90
10051;DHT22;5065;46.942;7.432;2023-07-22T04:53:53;19.40;99.90
10051;DHT22;5065;46.942;7.432;2023-07-22T04:56:20;19.50;99.90
10051;DHT22;5065;46.942;7.432;2023-07-22T04:58:48;19.50;99.90
10051;DHT22;5065;46.942;7.432;2023-07-22T05:01:15;19.60;99.90
10051;DHT22;5065;46.942;7.432;2023-07-22T05:03:42;19.60;99.90
10051;DHT22;5065;46.942;7.432;2023-07-22T05:06:11;19.60;99.90
10051;DHT22;5065;46.942;7.432;2023-07-22T05:08:40;19.60;99.90
10051;DHT22;5065;46.942;7.432;2023-07-22T05:11:07;19.70;99.90
10051;DHT22;5065;46.942;7.432;2023-07-22T05:13:34;19.80;99.90
10051;DHT22;5065;46.942;7.432;2023-07-22T05:16:01;19.90;99.90
10051;DHT22;5065;46.942;7.432;2023-07-22T05:18:28;20.00;99.90
10051;DHT22;5065;46.942;7.432;2023-07-22T05:20:55;20.10;99.90
10051;DHT22;5065;46.942;7.432;2023-07-22T05:23:23;20.30;99.90
10051;DHT22;5065;46.942;7.432;2023-07-22T05:25:54;20.40;99.90
10051;DHT22;5065;46.942;7.432;2023-07-22T05:28:21;20.50;99.90
10051;DHT22;5065;46.942;7.432;2023-07-22T05:30:49;20.60;99.90
10051;DHT22;5065;46.942;7.432;2023-07-22T05:33:16;20.70;99.90
10051;DHT22;5065;46.942;7.432;2023-07-22T05:35:43;20.80;99.90
10051;DHT22;5065;46.942;7.432;2023-07-22T05:38:10;21.00;99.90
10051;DHT22;5065;46.942;7.432;2023-07-22T05:40:38;21.20;99.90
10051;DHT22;5065;46.942;7.432;2023-07-22T05:43:06;21.30;99.90
10051;DHT22;5065;46.942;7.432;2023-07-22T05:45:33;21.50;99.90
10051;DHT22;5065;46.942;7.432;2023-07-22T05:48:00;21.60;99.90
10051;DHT22;5065;46.942;7.432;2023-07-22T05:50:28;21.70;99.90
10051;DHT22;5065;46.942;7.432;2023-07-22T05:52:55;21.80;99.90
10051;DHT22;5065;46.942;7.432;2023-07-22T05:55:22;21.90;99.90
10051;DHT22;5065;46.942;7.432;2023-07-22T05:57:50;22.00;99.90
10051;DHT22;5065;46.942;7.432;2023-07-22T06:00:18;22.10;99.90
10051;DHT22;5065;46.942;7.432;2023-07-22T06:02:45;22.20;99.90
10051;DHT22;5065;46.942;7.432;2023-07-22T06:05:15;22.30;99.90
10051;DHT22;5065;46.942;7.432;2023-07-22T06:07:42;22.40;99.90
10051;DHT22;5065;46.942;7.432;2023-07-22T06:10:10;22.50;99.90
10051;DHT22;5065;46.942;7.432;2023-07-22T06:12:37;22.40;99.90
10051;DHT22;5065;46.942;7.432;2023-07-22T06:15:07;22.30;99.90
10051;DHT22;5065;46.942;7.432;2023-07-22T06:17:36;22.20;99.90
10051;DHT22;5065;46.942;7.432;2023-07-22T06:20:04;22.10;99.90
10051;DHT22;5065;46.942;7.432;2023-07-22T06:22:31;22.00;99.90
10051;DHT22;5065;46.942;7.432;2023-07-22T06:24:59;22.00;99.90
10051;DHT22;5065;46.942;7.432;2023-07-22T06:27:26;22.10;99.90
10051;DHT22;5065;46.942;7.432;2023-07-22T06:29:53;22.30;99.90
10051;DHT22;5065;46.942;7.432;2023-07-22T06:32:20;22.60;99.90
10051;DHT22;5065;46.942;7.432;2023-07-22T06:34:49;22.80;99.90
10051;DHT22;5065;46.942;7.432;2023-07-22T06:37:16;23.10;99.90
10051;DHT22;5065;46.942;7.432;2023-07-22T06:39:43;23.20;99.90
10051;DHT22;5065;46.942;7.432;2023-07-22T06:42:11;23.40;99.90
10051;DHT22;5065;46.942;7.432;2023-07-22T06:44:38;23.30;99.90
10051;DHT22;5065;46.942;7.432;2023-07-22T06:47:06;23.40;99.90
10051;DHT22;5065;46.942;7.432;2023-07-22T06:49:35;23.50;99.90
10051;DHT22;5065;46.942;7.432;2023-07-22T06:52:04;23.60;99.90
10051;DHT22;5065;46.942;7.432;2023-07-22T06:54:32;23.90;99.90
10051;DHT22;5065;46.942;7.432;2023-07-22T06:56:59;24.10;99.90
10051;DHT22;5065;46.942;7.432;2023-07-22T06:59:27;24.30;99.90
10051;DHT22;5065;46.942;7.432;2023-07-22T07:01:54;24.40;99.90
10051;DHT22;5065;46.942;7.432;2023-07-22T07:04:21;24.50;99.90
10051;DHT22;5065;46.942;7.432;2023-07-22T07:06:49;24.60;99.90
10051;DHT22;5065;46.942;7.432;2023-07-22T07:09:18;24.80;99.90
10051;DHT22;5065;46.942;7.432;2023-07-22T07:11:45;25.10;99.90
10051;DHT22;5065;46.942;7.432;2023-07-22T07:14:13;25.30;99.90
10051;DHT22;5065;46.942;7.432;2023-07-22T07:16:40;25.50;99.90
10051;DHT22;5065;46.942;7.432;2023-07-22T07:19:07;25.60;99.90
10051;DHT22;5065;46.942;7.432;2023-07-22T07:21:35;25.90;99.90
10051;DHT22;5065;46.942;7.432;2023-07-22T07:24:02;26.10;99.90
10051;DHT22;5065;46.942;7.432;2023-07-22T07:26:33;26.20;99.90
10051;DHT22;5065;46.942;7.432;2023-07-22T07:29:00;26.30;99.90
10051;DHT22;5065;46.942;7.432;2023-07-22T07:31:27;26.30;99.90
10051;DHT22;5065;46.942;7.432;2023-07-22T07:33:54;26.50;99.90
10051;DHT22;5065;46.942;7.432;2023-07-22T07:36:21;26.70;99.90
10051;DHT22;5065;46.942;7.432;2023-07-22T07:38:49;26.80;99.90
10051;DHT22;5065;46.942;7.432;2023-07-22T07:41:16;26.80;99.90
10051;DHT22;5065;46.942;7.432;2023-07-22T07:43:45;26.70;99.90
10051;DHT22;5065;46.942;7.432;2023-07-22T07:46:13;26.60;99.90
10051;DHT22;5065;46.942;7.432;2023-07-22T07:48:40;26.30;99.90
10051;DHT22;5065;46.942;7.432;2023-07-22T07:51:08;26.30;99.90
10051;DHT22;5065;46.942;7.432;2023-07-22T07:53:35;26.40;99.90
10051;DHT22;5065;46.942;7.432;2023-07-22T07:56:02;26.60;99.90
10051;DHT22;5065;46.942;7.432;2023-07-22T07:58:29;26.80;99.90
10051;DHT22;5065;46.942;7.432;2023-07-22T08:00:58;27.00;99.90
10051;DHT22;5065;46.942;7.432;2023-07-22T08:03:25;27.20;99.90
10051;DHT22;5065;46.942;7.432;2023-07-22T08:05:52;27.50;99.90
10051;DHT22;5065;46.942;7.432;2023-07-22T08:08:20;27.70;99.90
10051;DHT22;5065;46.942;7.432;2023-07-22T08:10:58;27.90;99.90
10051;DHT22;5065;46.942;7.432;2023-07-22T08:13:25;27.70;99.90
10051;DHT22;5065;46.942;7.432;2023-07-22T08:15:53;27.50;99.90
10051;DHT22;5065;46.942;7.432;2023-07-22T08:18:21;27.30;99.90
10051;DHT22;5065;46.942;7.432;2023-07-22T08:20:50;27.00;99.80
10051;DHT22;5065;46.942;7.432;2023-07-22T08:23:18;26.70;99.90
10051;DHT22;5065;46.942;7.432;2023-07-22T08:25:45;26.70;99.90
10051;DHT22;5065;46.942;7.432;2023-07-22T08:28:13;26.80;99.90
10051;DHT22;5065;46.942;7.432;2023-07-22T08:30:40;27.10;99.90
10051;DHT22;5065;46.942;7.432;2023-07-22T08:33:10;27.40;99.90
10051;DHT22;5065;46.942;7.432;2023-07-22T08:35:39;27.60;99.90
10051;DHT22;5065;46.942;7.432;2023-07-22T08:38:07;27.70;99.40
10051;DHT22;5065;46.942;7.432;2023-07-22T08:40:36;27.50;98.70
10051;DHT22;5065;46.942;7.432;2023-07-22T08:43:05;27.40;99.60
10051;DHT22;5065;46.942;7.432;2023-07-22T08:45:34;27.50;99.30
10051;DHT22;5065;46.942;7.432;2023-07-22T08:48:05;27.70;98.30
10051;DHT22;5065;46.942;7.432;2023-07-22T08:50:41;28.10;95.90
10051;DHT22;5065;46.942;7.432;2023-07-22T08:53:12;28.30;93.70
10051;DHT22;5065;46.942;7.432;2023-07-22T08:55:40;28.40;95.00
10051;DHT22;5065;46.942;7.432;2023-07-22T08:58:08;28.50;96.20
10051;DHT22;5065;46.942;7.432;2023-07-22T09:00:37;28.50;94.60
10051;DHT22;5065;46.942;7.432;2023-07-22T09:03:05;28.40;95.10
10051;DHT22;5065;46.942;7.432;2023-07-22T09:05:34;28.40;95.00
10051;DHT22;5065;46.942;7.432;2023-07-22T09:08:03;28.50;94.70
10051;DHT22;5065;46.942;7.432;2023-07-22T09:10:35;28.60;94.50
10051;DHT22;5065;46.942;7.432;2023-07-22T09:13:04;28.80;92.90
10051;DHT22;5065;46.942;7.432;2023-07-22T09:15:35;28.90;92.90
10051;DHT22;5065;46.942;7.432;2023-07-22T09:18:02;29.20;89.90
10051;DHT22;5065;46.942;7.432;2023-07-22T09:20:30;29.30;90.60
10051;DHT22;5065;46.942;7.432;2023-07-22T09:22:59;29.50;92.20
10051;DHT22;5065;46.942;7.432;2023-07-22T09:25:27;29.60;92.20
10051;DHT22;5065;46.942;7.432;2023-07-22T09:28:00;29.80;91.50
10051;DHT22;5065;46.942;7.432;2023-07-22T09:30:28;30.00;87.40
10051;DHT22;5065;46.942;7.432;2023-07-22T09:32:57;30.10;87.60
10051;DHT22;5065;46.942;7.432;2023-07-22T09:35:27;30.20;88.80
10051;DHT22;5065;46.942;7.432;2023-07-22T09:37:54;30.20;87.40
10051;DHT22;5065;46.942;7.432;2023-07-22T09:40:23;30.30;88.30
10051;DHT22;5065;46.942;7.432;2023-07-22T09:42:52;30.30;83.90
10051;DHT22;5065;46.942;7.432;2023-07-22T09:45:24;30.50;84.20
10051;DHT22;5065;46.942;7.432;2023-07-22T09:47:53;30.60;81.10
10051;DHT22;5065;46.942;7.432;2023-07-22T09:50:21;30.50;84.60
10051;DHT22;5065;46.942;7.432;2023-07-22T09:52:50;30.60;85.60
10051;DHT22;5065;46.942;7.432;2023-07-22T09:55:19;30.60;83.60
10051;DHT22;5065;46.942;7.432;2023-07-22T09:57:50;30.60;82.60
10051;DHT22;5065;46.942;7.432;2023-07-22T10:00:17;30.60;82.30
10051;DHT22;5065;46.942;7.432;2023-07-22T10:02:48;30.70;82.80
10051;DHT22;5065;46.942;7.432;2023-07-22T10:05:17;30.70;82.80
10051;DHT22;5065;46.942;7.432;2023-07-22T10:07:46;30.80;80.50
10051;DHT22;5065;46.942;7.432;2023-07-22T10:10:17;30.80;80.70
10051;DHT22;5065;46.942;7.432;2023-07-22T10:12:44;30.90;80.70
10051;DHT22;5065;46.942;7.432;2023-07-22T10:15:14;31.00;79.50
10051;DHT22;5065;46.942;7.432;2023-07-22T10:17:42;31.10;78.80
10051;DHT22;5065;46.942;7.432;2023-07-22T10:20:13;31.10;77.90
10051;DHT22;5065;46.942;7.432;2023-07-22T10:22:43;31.20;73.30
10051;DHT22;5065;46.942;7.432;2023-07-22T10:25:12;31.20;76.50
10051;DHT22;5065;46.942;7.432;2023-07-22T10:27:40;31.20;76.40
10051;DHT22;5065;46.942;7.432;2023-07-22T10:30:09;31.30;76.20
10051;DHT22;5065;46.942;7.432;2023-07-22T10:32:37;31.40;72.90
10051;DHT22;5065;46.942;7.432;2023-07-22T10:35:08;31.40;73.60
10051;DHT22;5065;46.942;7.432;2023-07-22T10:37:38;31.30;76.30
10051;DHT22;5065;46.942;7.432;2023-07-22T10:40:25;31.30;74.40
10051;DHT22;5065;46.942;7.432;2023-07-22T10:42:54;31.40;70.50
10051;DHT22;5065;46.942;7.432;2023-07-22T10:45:28;31.30;75.40
10051;DHT22;5065;46.942;7.432;2023-07-22T10:48:09;31.20;74.70
10051;DHT22;5065;46.942;7.432;2023-07-22T10:50:42;31.10;71.20
10051;DHT22;5065;46.942;7.432;2023-07-22T10:53:12;31.00;76.00
10051;DHT22;5065;46.942;7.432;2023-07-22T10:56:05;31.00;73.00
10051;DHT22;5065;46.942;7.432;2023-07-22T10:58:32;30.90;69.10
10051;DHT22;5065;46.942;7.432;2023-07-22T11:06:36;30.70;75.00
10051;DHT22;5065;46.942;7.432;2023-07-22T11:09:04;30.50;77.00
10051;DHT22;5065;46.942;7.432;2023-07-22T11:11:38;30.40;77.30
10051;DHT22;5065;46.942;7.432;2023-07-22T11:14:14;30.30;75.80
10051;DHT22;5065;46.942;7.432;2023-07-22T11:16:42;30.20;72.10
10051;DHT22;5065;46.942;7.432;2023-07-22T11:19:09;30.00;77.90
10051;DHT22;5065;46.942;7.432;2023-07-22T11:21:36;30.00;77.30
10051;DHT22;5065;46.942;7.432;2023-07-22T11:24:04;29.80;76.80
10051;DHT22;5065;46.942;7.432;2023-07-22T11:26:31;29.80;75.50
10051;DHT22;5065;46.942;7.432;2023-07-22T11:28:59;29.70;69.90
10051;DHT22;5065;46.942;7.432;2023-07-22T11:31:30;29.60;74.50
10051;DHT22;5065;46.942;7.432;2023-07-22T11:33:57;29.60;78.60
10051;DHT22;5065;46.942;7.432;2023-07-22T11:36:24;29.50;78.00
10051;DHT22;5065;46.942;7.432;2023-07-22T11:38:52;29.40;76.20
10051;DHT22;5065;46.942;7.432;2023-07-22T11:41:21;29.30;78.40
10051;DHT22;5065;46.942;7.432;2023-07-22T11:43:48;29.30;79.10
10051;DHT22;5065;46.942;7.432;2023-07-22T11:46:15;29.20;77.30
10051;DHT22;5065;46.942;7.432;2023-07-22T11:48:48;29.10;78.00
10051;DHT22;5065;46.942;7.432;2023-07-22T11:51:16;29.00;78.40
10051;DHT22;5065;46.942;7.432;2023-07-22T11:53:43;28.90;77.20
10051;DHT22;5065;46.942;7.432;2023-07-22T11:56:10;28.90;75.50
10051;DHT22;5065;46.942;7.432;2023-07-22T11:58:38;28.90;77.60
10051;DHT22;5065;46.942;7.432;2023-07-22T12:01:06;28.80;77.50
10051;DHT22;5065;46.942;7.432;2023-07-22T12:03:33;28.80;78.10
10051;DHT22;5065;46.942;7.432;2023-07-22T12:06:01;28.70;78.80
10051;DHT22;5065;46.942;7.432;2023-07-22T12:08:28;28.60;77.30
10051;DHT22;5065;46.942;7.432;2023-07-22T12:10:58;28.60;77.50
10051;DHT22;5065;46.942;7.432;2023-07-22T12:13:25;28.50;77.60
10051;DHT22;5065;46.942;7.432;2023-07-22T12:16:00;28.40;78.00
10051;DHT22;5065;46.942;7.432;2023-07-22T12:18:27;28.40;78.00
10051;DHT22;5065;46.942;7.432;2023-07-22T12:20:56;28.40;80.20
10051;DHT22;5065;46.942;7.432;2023-07-22T12:23:23;28.30;80.00
10051;DHT22;5065;46.942;7.432;2023-07-22T12:25:50;28.30;78.40
10051;DHT22;5065;46.942;7.432;2023-07-22T12:28:17;28.30;77.30
10051;DHT22;5065;46.942;7.432;2023-07-22T12:30:44;28.30;79.80
10051;DHT22;5065;46.942;7.432;2023-07-22T12:33:13;28.30;74.30
10051;DHT22;5065;46.942;7.432;2023-07-22T12:35:39;28.20;77.20
10051;DHT22;5065;46.942;7.432;2023-07-22T12:38:06;28.20;74.30
10051;DHT22;5065;46.942;7.432;2023-07-22T12:40:33;28.10;79.90
10051;DHT22;5065;46.942;7.432;2023-07-22T12:43:02;28.10;79.10
10051;DHT22;5065;46.942;7.432;2023-07-22T12:45:30;28.00;79.50
10051;DHT22;5065;46.942;7.432;2023-07-22T12:47:57;27.90;81.50
10051;DHT22;5065;46.942;7.432;2023-07-22T12:50:25;28.00;70.90
10051;DHT22;5065;46.942;7.432;2023-07-22T12:52:52;28.00;78.20
10051;DHT22;5065;46.942;7.432;2023-07-22T12:55:19;28.00;81.10
10051;DHT22;5065;46.942;7.432;2023-07-22T12:57:46;27.90;77.10
10051;DHT22;5065;46.942;7.432;2023-07-22T13:00:13;27.90;70.50
10051;DHT22;5065;46.942;7.432;2023-07-22T13:02:40;27.80;73.30
10051;DHT22;5065;46.942;7.432;2023-07-22T13:05:07;27.80;79.10
10051;DHT22;5065;46.942;7.432;2023-07-22T13:07:36;27.80;80.30
10051;DHT22;5065;46.942;7.432;2023-07-22T13:10:03;27.80;81.00
10051;DHT22;5065;46.942;7.432;2023-07-22T13:12:36;27.80;76.60
10051;DHT22;5065;46.942;7.432;2023-07-22T13:15:03;27.80;81.30
10051;DHT22;5065;46.942;7.432;2023-07-22T13:17:30;27.80;77.50
10051;DHT22;5065;46.942;7.432;2023-07-22T13:19:58;27.80;81.30
10051;DHT22;5065;46.942;7.432;2023-07-22T13:22:25;27.70;79.90
10051;DHT22;5065;46.942;7.432;2023-07-22T13:24:54;27.80;75.00
10051;DHT22;5065;46.942;7.432;2023-07-22T13:27:20;27.70;80.10
10051;DHT22;5065;46.942;7.432;2023-07-22T13:29:47;27.70;80.60
10051;DHT22;5065;46.942;7.432;2023-07-22T13:32:14;27.70;80.10
10051;DHT22;5065;46.942;7.432;2023-07-22T13:34:41;27.70;79.10
10051;DHT22;5065;46.942;7.432;2023-07-22T13:37:08;27.70;74.70
10051;DHT22;5065;46.942;7.432;2023-07-22T13:39:35;27.70;75.70
10051;DHT22;5065;46.942;7.432;2023-07-22T13:42:03;27.70;79.70
10051;DHT22;5065;46.942;7.432;2023-07-22T13:44:30;27.60;80.30
10051;DHT22;5065;46.942;7.432;2023-07-22T13:46:57;27.60;79.10
10051;DHT22;5065;46.942;7.432;2023-07-22T13:49:24;27.60;74.20
10051;DHT22;5065;46.942;7.432;2023-07-22T13:51:51;27.60;78.60
10051;DHT22;5065;46.942;7.432;2023-07-22T13:54:18;27.50;72.60
10051;DHT22;5065;46.942;7.432;2023-07-22T13:56:45;27.50;77.90
10051;DHT22;5065;46.942;7.432;2023-07-22T13:59:14;27.50;78.90
10051;DHT22;5065;46.942;7.432;2023-07-22T14:01:42;27.50;79.80
10051;DHT22;5065;46.942;7.432;2023-07-22T14:04:10;27.50;76.90
10051;DHT22;5065;46.942;7.432;2023-07-22T14:06:37;27.40;79.00
10051;DHT22;5065;46.942;7.432;2023-07-22T14:09:04;27.50;79.00
10051;DHT22;5065;46.942;7.432;2023-07-22T14:11:31;27.50;79.00
10051;DHT22;5065;46.942;7.432;2023-07-22T14:13:58;27.50;79.60
10051;DHT22;5065;46.942;7.432;2023-07-22T14:16:27;27.50;78.40
10051;DHT22;5065;46.942;7.432;2023-07-22T14:18:54;27.50;78.60
10051;DHT22;5065;46.942;7.432;2023-07-22T14:21:22;27.50;79.60
10051;DHT22;5065;46.942;7.432;2023-07-22T14:23:49;27.50;79.00
10051;DHT22;5065;46.942;7.432;2023-07-22T14:26:16;27.50;79.00
10051;DHT22;5065;46.942;7.432;2023-07-22T14:28:43;27.40;79.40
10051;DHT22;5065;46.942;7.432;2023-07-22T14:31:10;27.40;79.40
10051;DHT22;5065;46.942;7.432;2023-07-22T14:33:39;27.40;78.70
10051;DHT22;5065;46.942;7.432;2023-07-22T14:36:06;27.40;77.00
10051;DHT22;5065;46.942;7.432;2023-07-22T14:38:33;27.40;76.90
10051;DHT22;5065;46.942;7.432;2023-07-22T14:41:01;27.40;77.80
10051;DHT22;5065;46.942;7.432;2023-07-22T14:43:28;27.40;76.90
10051;DHT22;5065;46.942;7.432;2023-07-22T14:45:55;27.40;75.80
10051;DHT22;5065;46.942;7.432;2023-07-22T14:48:23;27.40;72.10
10051;DHT22;5065;46.942;7.432;2023-07-22T14:50:52;27.40;74.00
10051;DHT22;5065;46.942;7.432;2023-07-22T14:53:19;27.50;71.00
10051;DHT22;5065;46.942;7.432;2023-07-22T14:55:46;27.50;73.00
10051;DHT22;5065;46.942;7.432;2023-07-22T14:58:13;27.50;72.50
10051;DHT22;5065;46.942;7.432;2023-07-22T15:00:40;27.60;72.80
10051;DHT22;5065;46.942;7.432;2023-07-22T15:03:08;27.60;71.80
10051;DHT22;5065;46.942;7.432;2023-07-22T15:05:35;27.60;71.40
10051;DHT22;5065;46.942;7.432;2023-07-22T15:08:03;27.60;70.60
10051;DHT22;5065;46.942;7.432;2023-07-22T15:10:31;27.60;73.50
10051;DHT22;5065;46.942;7.432;2023-07-22T15:12:58;27.60;70.90
10051;DHT22;5065;46.942;7.432;2023-07-22T15:15:25;27.60;69.30
10051;DHT22;5065;46.942;7.432;2023-07-22T15:17:52;27.60;69.90
10051;DHT22;5065;46.942;7.432;2023-07-22T15:20:19;27.60;70.00
10051;DHT22;5065;46.942;7.432;2023-07-22T15:22:47;27.40;68.10
10051;DHT22;5065;46.942;7.432;2023-07-22T15:25:15;27.60;68.00
10051;DHT22;5065;46.942;7.432;2023-07-22T15:27:42;27.60;68.80
10051;DHT22;5065;46.942;7.432;2023-07-22T15:30:10;27.60;70.00
10051;DHT22;5065;46.942;7.432;2023-07-22T15:32:38;27.60;69.70
10051;DHT22;5065;46.942;7.432;2023-07-22T15:35:06;27.60;70.80
10051;DHT22;5065;46.942;7.432;2023-07-22T15:37:33;27.70;70.70
10051;DHT22;5065;46.942;7.432;2023-07-22T15:40:01;27.60;70.50
10051;DHT22;5065;46.942;7.432;2023-07-22T15:42:29;27.70;71.50
10051;DHT22;5065;46.942;7.432;2023-07-22T15:44:58;27.70;71.50
10051;DHT22;5065;46.942;7.432;2023-07-22T15:47:25;27.60;70.60
10051;DHT22;5065;46.942;7.432;2023-07-22T15:49:52;27.60;72.40
10051;DHT22;5065;46.942;7.432;2023-07-22T15:52:19;27.60;71.30
10051;DHT22;5065;46.942;7.432;2023-07-22T15:54:49;27.60;70.90
10051;DHT22;5065;46.942;7.432;2023-07-22T15:57:17;27.60;68.80